createdAt,value
2023-01-12T00:01:27.403Z,56.17
2023-01-12T00:06:24.973Z,45.70
2023-01-12T00:08:53.680Z,55.63
2023-01-12T00:11:21.581Z,55.33
2023-01-12T00:13:49.100Z,59.42
2023-01-12T00:16:37.789Z,53.55
2023-01-12T00:19:15.548Z,48.92
2023-01-12T00:21:59.163Z,51.13
2023-01-12T00:24:28.330Z,55.95
2023-01-12T00:26:56.649Z,57.15
2023-01-12T00:29:24.953Z,547.42
2023-01-12T00:31:53.713Z,53.40
2023-01-12T00:34:21.698Z,52.45
2023-01-12T00:36:50.476Z,1999.90
2023-01-12T00:39:18.383Z,1999.90
2023-01-12T00:42:03.833Z,1999.90
2023-01-12T00:47:43.951Z,1999.90
2023-01-12T00:50:11.578Z,1999.90
2023-01-12T00:52:40.262Z,1999.90
2023-01-12T00:55:08.687Z,1999.90
2023-01-12T00:57:36.093Z,1999.90
2023-01-12T01:00:03.930Z,1999.90
2023-01-12T01:02:31.435Z,1999.90
2023-01-12T01:04:58.836Z,1999.90
2023-01-12T01:07:26.290Z,49.63
2023-01-12T01:09:56.164Z,49.75
2023-01-12T01:12:23.530Z,50.28
2023-01-12T01:14:50.900Z,51.65
2023-01-12T01:17:18.273Z,53.45
2023-01-12T01:19:46.296Z,48.80
2023-01-12T01:24:41.274Z,49.25
2023-01-12T01:27:10.052Z,47.90
2023-01-12T01:29:37.567Z,50.78
2023-01-12T01:32:05.163Z,53.10
2023-01-12T01:34:32.531Z,53.05
2023-01-12T01:37:00.123Z,53.83
2023-01-12T01:39:27.514Z,57.60
2023-01-12T01:41:55.337Z,57.25
2023-01-12T01:44:54.316Z,51.30
2023-01-12T01:47:29.504Z,52.88
2023-01-12T01:50:00.185Z,54.35
2023-01-12T01:52:32.023Z,54.17
2023-01-12T01:55:04.086Z,58.00
2023-01-12T01:57:37.558Z,54.17
2023-01-12T02:00:08.359Z,58.83
2023-01-12T02:02:36.640Z,50.90
2023-01-12T02:05:05.036Z,57.67
2023-01-12T02:07:33.520Z,50.22
2023-01-12T02:10:00.979Z,53.03
2023-01-12T02:12:45.867Z,62.28
2023-01-12T02:15:32.289Z,58.45
2023-01-12T02:18:15.628Z,55.33
2023-01-12T02:21:17.008Z,57.55
2023-01-12T02:24:28.092Z,53.53
2023-01-12T02:27:39.362Z,50.10
2023-01-12T02:30:39.912Z,48.38
2023-01-12T02:33:21.949Z,51.28
2023-01-12T02:35:58.508Z,47.88
2023-01-12T02:38:34.683Z,45.95
2023-01-12T02:41:12.908Z,54.70
2023-01-12T02:43:41.871Z,57.58
2023-01-12T02:46:15.744Z,55.55
2023-01-12T02:48:51.385Z,48.45
2023-01-12T02:51:27.652Z,49.58
2023-01-12T02:54:01.256Z,47.03
2023-01-12T02:56:32.550Z,50.70
2023-01-12T02:59:04.814Z,52.00
2023-01-12T03:01:33.685Z,50.13
2023-01-12T03:04:04.601Z,48.42
2023-01-12T03:06:40.614Z,47.80
2023-01-12T03:09:08.742Z,53.95
2023-01-12T03:11:39.907Z,50.63
2023-01-12T03:14:09.752Z,49.65
2023-01-12T03:16:39.369Z,50.55
2023-01-12T03:19:12.229Z,52.90
2023-01-12T03:21:43.055Z,55.47
2023-01-12T03:24:13.655Z,47.40
2023-01-12T03:26:45.497Z,47.08
2023-01-12T03:29:16.938Z,49.05
2023-01-12T03:31:44.509Z,52.20
2023-01-12T03:34:13.823Z,47.00
2023-01-12T03:36:49.409Z,49.15
2023-01-12T03:39:27.498Z,50.28
2023-01-12T03:42:00.515Z,48.95
2023-01-12T03:44:32.265Z,54.38
2023-01-12T03:47:04.597Z,50.70
2023-01-12T03:49:38.885Z,49.53
2023-01-12T03:52:09.353Z,49.63
2023-01-12T03:54:39.237Z,46.10
2023-01-12T03:57:09.261Z,53.85
2023-01-12T03:59:36.887Z,48.58
2023-01-12T04:02:04.577Z,49.70
2023-01-12T04:04:32.013Z,54.67
2023-01-12T04:07:01.921Z,50.22
2023-01-12T04:09:29.475Z,47.92
2023-01-12T04:12:11.688Z,52.13
2023-01-12T04:14:39.880Z,51.15
2023-01-12T04:17:07.339Z,52.40
2023-01-12T04:19:34.762Z,46.13
2023-01-12T04:22:21.194Z,55.15
2023-01-12T04:24:49.379Z,51.05
2023-01-12T04:27:17.351Z,46.80
2023-01-12T04:29:44.938Z,45.83
2023-01-12T04:32:13.002Z,49.88
2023-01-12T04:37:09.086Z,48.58
2023-01-12T04:39:36.484Z,44.83
2023-01-12T04:42:03.985Z,51.03
2023-01-12T04:44:32.319Z,51.78
2023-01-12T04:46:59.793Z,50.78
2023-01-12T04:49:27.143Z,52.25
2023-01-12T04:51:54.580Z,51.60
2023-01-12T04:54:23.258Z,50.72
2023-01-12T04:56:50.676Z,48.25
2023-01-12T04:59:18.111Z,51.63
2023-01-12T05:01:45.525Z,49.00
2023-01-12T05:04:14.821Z,49.20
2023-01-12T05:06:42.208Z,49.95
2023-01-12T05:09:27.719Z,51.58
2023-01-12T05:11:56.393Z,52.67
2023-01-12T05:14:23.761Z,49.67
2023-01-12T05:16:51.238Z,50.55
2023-01-12T05:19:18.618Z,51.65
2023-01-12T05:21:45.952Z,51.15
2023-01-12T05:24:13.399Z,50.83
2023-01-12T05:26:40.744Z,49.42
2023-01-12T05:29:12.315Z,52.17
2023-01-12T05:31:40.121Z,50.92
2023-01-12T05:34:07.647Z,53.05
2023-01-12T05:36:35.073Z,50.67
2023-01-12T05:39:02.573Z,51.38
2023-01-12T05:41:29.938Z,47.95
2023-01-12T05:43:56.427Z,48.15
2023-01-12T05:46:26.919Z,43.28
2023-01-12T05:48:56.621Z,51.97
2023-01-12T05:51:25.755Z,48.58
2023-01-12T05:53:53.724Z,51.67
2023-01-12T05:56:25.508Z,50.88
2023-01-12T05:58:54.544Z,53.50
2023-01-12T06:01:23.157Z,52.05
2023-01-12T06:03:53.942Z,54.50
2023-01-12T06:06:22.749Z,56.28
2023-01-12T06:08:52.607Z,49.22
2023-01-12T06:11:38.360Z,51.00
2023-01-12T06:14:06.799Z,49.78
2023-01-12T06:16:34.199Z,49.15
2023-01-12T06:19:02.868Z,45.28
2023-01-12T06:21:30.302Z,46.97
2023-01-12T06:23:57.657Z,50.58
2023-01-12T06:26:25.347Z,53.60
2023-01-12T06:28:52.741Z,51.97
2023-01-12T06:31:20.211Z,53.60
2023-01-12T06:33:48.213Z,46.08
2023-01-12T06:36:16.933Z,51.67
2023-01-12T06:38:44.344Z,46.40
2023-01-12T06:41:34.226Z,47.85
2023-01-12T06:44:01.620Z,45.65
2023-01-12T06:46:29.301Z,44.95
2023-01-12T06:48:57.554Z,49.45
2023-01-12T06:51:26.931Z,45.65
2023-01-12T06:53:54.415Z,54.60
2023-01-12T06:56:21.840Z,50.83
2023-01-12T06:58:49.233Z,50.50
2023-01-12T07:01:17.090Z,52.50
2023-01-12T07:03:44.932Z,47.88
2023-01-12T07:06:12.869Z,51.83
2023-01-12T07:08:42.789Z,48.72
2023-01-12T07:11:12.562Z,47.38
2023-01-12T07:13:40.276Z,50.25
2023-01-12T07:16:08.339Z,48.00
2023-01-12T07:21:06.173Z,51.15
2023-01-12T07:23:33.809Z,44.03
2023-01-12T07:26:02.516Z,50.55
2023-01-12T07:31:23.194Z,48.83
2023-01-12T07:33:52.814Z,45.67
2023-01-12T07:36:20.549Z,51.28
2023-01-12T07:38:47.926Z,46.33
2023-01-12T07:41:30.656Z,56.50
2023-01-12T07:43:58.200Z,49.30
2023-01-12T07:46:26.131Z,47.70
2023-01-12T07:48:53.505Z,52.45
2023-01-12T07:51:20.954Z,53.72
2023-01-12T07:53:49.047Z,52.15
2023-01-12T07:56:19.087Z,47.08
2023-01-12T07:58:48.666Z,50.13
2023-01-12T08:01:16.485Z,49.78
2023-01-12T08:03:44.031Z,49.00
2023-01-12T08:06:11.602Z,49.42
2023-01-12T08:08:39.000Z,47.00
2023-01-12T08:11:08.815Z,50.58
2023-01-12T08:13:38.883Z,48.63
2023-01-12T08:16:14.293Z,43.42
2023-01-12T08:18:47.077Z,52.45
2023-01-12T08:21:20.098Z,54.22
2023-01-12T08:23:52.566Z,54.92
2023-01-12T08:26:23.905Z,50.95
2023-01-12T08:28:56.966Z,53.70
2023-01-12T08:31:26.223Z,57.00
2023-01-12T08:33:55.391Z,56.88
2023-01-12T08:36:23.501Z,58.08
2023-01-12T08:41:33.660Z,54.90
2023-01-12T08:44:03.803Z,62.25
2023-01-12T08:46:32.479Z,69.47
2023-01-12T08:49:00.126Z,59.80
2023-01-12T08:51:27.570Z,60.45
2023-01-12T08:53:55.017Z,53.35
2023-01-12T08:56:23.114Z,57.28
2023-01-12T08:58:50.518Z,60.45
2023-01-12T09:01:20.055Z,49.67
2023-01-12T09:03:48.496Z,57.35
2023-01-12T09:06:17.949Z,54.92
2023-01-12T09:08:46.101Z,50.38
2023-01-12T09:11:15.478Z,52.25
2023-01-12T09:13:42.915Z,51.92
2023-01-12T09:16:13.638Z,52.75
2023-01-12T09:18:43.188Z,52.03
2023-01-12T09:21:13.028Z,48.28
2023-01-12T09:23:40.569Z,44.63
2023-01-12T09:26:10.732Z,48.70
2023-01-12T09:28:38.839Z,42.97
2023-01-12T09:33:35.834Z,61.42
2023-01-12T09:36:06.634Z,47.83
2023-01-12T09:38:36.736Z,40.67
2023-01-12T09:41:11.061Z,44.83
2023-01-12T09:43:58.027Z,41.65
2023-01-12T09:46:46.245Z,41.73
2023-01-12T09:49:15.004Z,47.58
2023-01-12T09:51:52.246Z,42.15
2023-01-12T09:54:20.585Z,41.60
2023-01-12T09:56:52.698Z,42.75
2023-01-12T09:59:31.816Z,34.25
2023-01-12T10:01:59.689Z,41.38
2023-01-12T10:04:27.385Z,42.40
2023-01-12T10:06:56.483Z,44.72
2023-01-12T10:09:24.298Z,41.20
2023-01-12T10:12:01.583Z,42.72
2023-01-12T10:14:44.057Z,42.70
2023-01-12T10:17:38.538Z,38.83
2023-01-12T10:20:19.294Z,39.15
2023-01-12T10:22:50.840Z,41.83
2023-01-12T10:25:28.211Z,45.05
2023-01-12T10:27:57.744Z,38.47
2023-01-12T10:30:29.846Z,42.95
2023-01-12T10:32:57.531Z,37.60
2023-01-12T10:35:26.473Z,40.35
2023-01-12T10:37:57.365Z,43.72
2023-01-12T10:40:31.265Z,40.83
2023-01-12T10:43:21.830Z,40.47
2023-01-12T10:46:09.719Z,37.97
2023-01-12T10:48:39.037Z,45.38
2023-01-12T10:51:09.126Z,37.58
2023-01-12T10:53:43.400Z,41.30
2023-01-12T10:56:21.329Z,40.95
2023-01-12T11:01:21.356Z,40.88
2023-01-12T11:03:48.990Z,41.58
2023-01-12T11:06:26.178Z,40.33
2023-01-12T11:08:55.767Z,35.30
2023-01-12T11:11:27.542Z,39.22
2023-01-12T11:13:57.809Z,42.30
2023-01-12T11:16:27.701Z,40.72
2023-01-12T11:19:13.167Z,42.78
2023-01-12T11:21:44.254Z,41.97
2023-01-12T11:24:20.365Z,39.55
2023-01-12T11:26:55.329Z,37.70
2023-01-12T11:29:35.055Z,41.83
2023-01-12T11:32:07.333Z,42.47
2023-01-12T11:34:39.282Z,41.47
2023-01-12T11:37:13.021Z,39.72
2023-01-12T11:39:53.247Z,45.75
2023-01-12T11:42:40.133Z,44.75
2023-01-12T11:45:18.001Z,41.80
2023-01-12T11:50:19.074Z,48.53
2023-01-12T11:52:46.659Z,41.63
2023-01-12T11:55:19.912Z,55.05
2023-01-12T11:58:00.636Z,46.92
2023-01-12T12:00:50.501Z,47.38
2023-01-12T12:03:46.929Z,53.35
2023-01-12T12:06:28.130Z,46.90
2023-01-12T12:09:05.955Z,51.85
2023-01-12T12:11:42.795Z,50.83
2023-01-12T12:14:26.616Z,41.83
2023-01-12T12:17:03.375Z,51.75
2023-01-12T12:19:43.400Z,48.17
2023-01-12T12:22:23.904Z,50.88
2023-01-12T12:25:03.862Z,48.90
2023-01-12T12:27:45.486Z,52.95
2023-01-12T12:30:29.475Z,52.92
2023-01-12T12:33:07.668Z,47.40
2023-01-12T12:35:46.093Z,46.72
2023-01-12T12:38:26.702Z,47.58
2023-01-12T12:41:22.727Z,40.75
2023-01-12T12:44:26.278Z,45.25
2023-01-12T12:47:01.658Z,42.75
2023-01-12T12:49:32.713Z,44.95
2023-01-12T12:52:01.832Z,45.58
2023-01-12T12:54:30.445Z,59.88
2023-01-12T12:56:58.460Z,58.42
2023-01-12T13:02:53.928Z,1999.90
2023-01-12T13:05:46.326Z,1999.90
2023-01-12T13:08:23.401Z,52.50
2023-01-12T13:10:53.712Z,1999.90
2023-01-12T13:13:32.729Z,1999.90
2023-01-12T13:16:45.990Z,1999.90
2023-01-12T13:19:34.076Z,1999.90
2023-01-12T13:22:26.740Z,1999.90
2023-01-12T13:24:54.912Z,1999.90
2023-01-12T13:27:48.432Z,1999.90
2023-01-12T13:30:40.217Z,1999.90
2023-01-12T13:33:23.995Z,1999.90
2023-01-12T13:36:10.185Z,1999.90
2023-01-12T13:38:53.150Z,1999.90
2023-01-12T13:41:51.457Z,1999.90
2023-01-12T13:44:25.302Z,1999.90
2023-01-12T13:47:02.232Z,1999.90
2023-01-12T13:49:32.398Z,1999.90
2023-01-12T13:52:04.168Z,1999.90
2023-01-12T13:54:33.406Z,1999.90
2023-01-12T13:57:03.173Z,1999.90
2023-01-12T13:59:30.981Z,1999.90
2023-01-12T14:01:58.932Z,1999.90
2023-01-12T14:04:42.402Z,1999.90
2023-01-12T14:07:22.773Z,1999.90
2023-01-12T14:10:05.398Z,1999.90
2023-01-12T14:13:04.668Z,1999.90
2023-01-12T14:15:54.546Z,1999.90
2023-01-12T14:18:24.814Z,1999.90
2023-01-12T14:20:55.521Z,1999.90
2023-01-12T14:23:29.839Z,1999.90
2023-01-12T14:26:05.907Z,1999.90
2023-01-12T14:28:33.798Z,1999.90
2023-01-12T14:31:01.985Z,1999.90
2023-01-12T14:33:31.492Z,1999.90
2023-01-12T14:36:04.711Z,1999.90
2023-01-12T14:38:35.043Z,1999.90
2023-01-12T14:41:05.041Z,1999.90
2023-01-12T14:43:51.777Z,1999.90
2023-01-12T14:46:26.440Z,1999.90
2023-01-12T14:48:59.629Z,1999.90
2023-01-12T14:51:30.457Z,1999.90
2023-01-12T14:54:02.387Z,1999.90
2023-01-12T14:56:38.524Z,1999.90
2023-01-12T14:59:08.500Z,1999.90
2023-01-12T15:01:38.575Z,1999.90
2023-01-12T15:04:07.940Z,1999.90
2023-01-12T15:06:40.188Z,1999.90
2023-01-12T15:09:25.639Z,1999.90
2023-01-12T15:11:53.129Z,1999.90
2023-01-12T15:14:25.814Z,1999.90
2023-01-12T15:17:11.931Z,1999.90
2023-01-12T15:19:57.394Z,1999.90
2023-01-12T15:22:45.139Z,1999.90
2023-01-12T15:27:59.483Z,1999.90
2023-01-12T15:30:27.351Z,1999.90
2023-01-12T15:32:55.471Z,1999.90
2023-01-12T15:35:25.013Z,1999.90
2023-01-12T15:37:54.523Z,1999.90
2023-01-12T15:40:24.477Z,1999.90
2023-01-12T15:42:53.425Z,1999.90
2023-01-12T15:45:32.717Z,1999.90
2023-01-12T15:48:00.112Z,1999.90
2023-01-12T15:50:29.199Z,1999.90
2023-01-12T15:52:58.656Z,1999.90
2023-01-12T15:55:27.656Z,1999.90
2023-01-12T15:57:55.019Z,1999.90
2023-01-12T16:00:25.081Z,1999.90
2023-01-12T16:02:56.781Z,1999.90
2023-01-12T16:05:26.279Z,1999.90
2023-01-12T16:07:53.934Z,1999.90
2023-01-12T16:10:21.826Z,1999.90
2023-01-12T16:12:50.654Z,1999.90
2023-01-12T16:15:20.098Z,1999.90
2023-01-12T16:17:48.423Z,1999.90
2023-01-12T16:20:17.448Z,1999.90
2023-01-12T16:22:46.532Z,1999.90
2023-01-12T16:25:14.506Z,1999.90
2023-01-12T16:27:42.139Z,1999.90
2023-01-12T16:30:15.191Z,1999.90
2023-01-12T16:32:46.265Z,1999.90
2023-01-12T16:35:15.240Z,1999.90
2023-01-12T16:37:42.719Z,1999.90
2023-01-12T16:40:12.347Z,1999.90
2023-01-12T16:42:39.688Z,1999.90
2023-01-12T16:45:07.991Z,1999.90
2023-01-12T16:47:36.668Z,1999.90
2023-01-12T16:50:04.603Z,1999.90
2023-01-12T16:52:32.363Z,1999.90
2023-01-12T16:54:59.778Z,1999.90
2023-01-12T16:57:27.244Z,1999.90
2023-01-12T16:59:54.596Z,1999.90
2023-01-12T17:02:22.291Z,1999.90
2023-01-12T17:04:52.334Z,1999.90
2023-01-12T17:07:20.077Z,1999.90
2023-01-12T17:09:47.795Z,53.92
2023-01-12T17:12:15.251Z,47.85
2023-01-12T17:14:42.753Z,55.75
2023-01-12T17:17:11.992Z,49.10
2023-01-12T17:19:42.884Z,58.88
2023-01-12T17:22:12.801Z,61.33
2023-01-12T17:24:41.667Z,49.33
2023-01-12T17:27:10.461Z,54.65
2023-01-12T17:29:38.401Z,55.58
2023-01-12T17:32:07.503Z,60.95
2023-01-12T17:34:36.881Z,59.88
2023-01-12T17:37:08.151Z,55.65
2023-01-12T17:39:39.681Z,60.40
2023-01-12T17:42:25.180Z,56.40
2023-01-12T17:44:52.558Z,54.03
2023-01-12T17:47:20.036Z,56.30
2023-01-12T17:49:48.547Z,49.40
2023-01-12T17:52:16.397Z,60.17
2023-01-12T17:54:45.177Z,57.20
2023-01-12T17:57:13.028Z,50.67
2023-01-12T17:59:40.805Z,58.72
2023-01-12T18:02:08.321Z,47.72
2023-01-12T18:04:35.731Z,48.05
2023-01-12T18:07:03.123Z,50.30
2023-01-12T18:09:31.225Z,45.45
2023-01-12T18:12:02.515Z,40.80
2023-01-12T18:14:30.024Z,38.65
2023-01-12T18:16:57.804Z,43.00
2023-01-12T18:19:25.224Z,39.17
2023-01-12T18:21:52.731Z,48.65
2023-01-12T18:24:20.140Z,39.10
2023-01-12T18:26:48.024Z,40.70
2023-01-12T18:29:16.712Z,44.88
2023-01-12T18:31:47.197Z,39.83
2023-01-12T18:34:16.359Z,53.08
2023-01-12T18:36:43.835Z,45.25
2023-01-12T18:39:14.194Z,44.25
2023-01-12T18:42:04.600Z,44.00
2023-01-12T18:44:34.159Z,43.20
2023-01-12T18:47:20.417Z,46.25
2023-01-12T18:49:48.304Z,60.00
2023-01-12T18:52:34.498Z,44.53
2023-01-12T18:55:02.906Z,47.72
2023-01-12T18:57:32.067Z,48.55
2023-01-12T19:00:11.917Z,42.70
2023-01-12T19:02:39.995Z,45.55
2023-01-12T19:08:11.200Z,42.85
2023-01-12T19:10:38.657Z,48.00
2023-01-12T19:13:23.388Z,47.53
2023-01-12T19:16:09.988Z,49.90
2023-01-12T19:18:38.334Z,48.90
2023-01-12T19:21:22.758Z,44.45
2023-01-12T19:24:22.233Z,54.17
2023-01-12T19:27:07.272Z,45.10
2023-01-12T19:29:35.403Z,47.47
2023-01-12T19:32:04.298Z,50.92
2023-01-12T19:34:31.684Z,51.92
2023-01-12T19:36:59.123Z,49.97
2023-01-12T19:39:46.349Z,47.22
2023-01-12T19:42:31.998Z,41.65
2023-01-12T19:44:59.374Z,38.65
2023-01-12T19:47:28.293Z,39.03
2023-01-12T19:49:55.717Z,36.60
2023-01-12T19:52:23.098Z,38.25
2023-01-12T19:54:51.035Z,39.55
2023-01-12T19:57:19.657Z,38.58
2023-01-12T19:59:48.245Z,41.95
2023-01-12T20:02:15.864Z,37.83
2023-01-12T20:04:44.625Z,41.60
2023-01-12T20:07:12.017Z,39.83
2023-01-12T20:09:39.520Z,40.40
2023-01-12T20:12:07.363Z,41.08
2023-01-12T20:14:34.809Z,38.60
2023-01-12T20:17:02.186Z,44.72
2023-01-12T20:19:29.714Z,40.58
2023-01-12T20:21:58.457Z,44.50
2023-01-12T20:24:26.130Z,52.78
2023-01-12T20:26:53.606Z,45.13
2023-01-12T20:29:23.427Z,52.90
2023-01-12T20:31:52.327Z,51.15
2023-01-12T20:34:20.932Z,41.63
2023-01-12T20:36:49.071Z,44.22
2023-01-12T20:39:17.940Z,44.75
2023-01-12T20:41:45.369Z,42.42
2023-01-12T20:44:16.938Z,39.88
2023-01-12T20:46:44.551Z,37.67
2023-01-12T20:49:12.237Z,44.30
2023-01-12T20:51:39.726Z,43.40
2023-01-12T20:54:07.940Z,42.28
2023-01-12T20:56:36.753Z,42.30
2023-01-12T20:59:04.204Z,40.45
2023-01-12T21:01:32.377Z,38.78
2023-01-12T21:03:59.808Z,38.72
2023-01-12T21:06:27.355Z,43.33
2023-01-12T21:08:54.789Z,44.35
2023-01-12T21:11:22.372Z,44.95
2023-01-12T21:13:51.064Z,46.28
2023-01-12T21:16:20.270Z,37.67
2023-01-12T21:18:48.001Z,39.53
2023-01-12T21:21:15.693Z,37.47
2023-01-12T21:23:43.175Z,39.30
2023-01-12T21:26:13.506Z,36.28
2023-01-12T21:28:41.492Z,37.67
2023-01-12T21:33:39.476Z,42.58
2023-01-12T21:36:07.898Z,37.28
2023-01-12T21:38:35.323Z,38.28
2023-01-12T21:41:05.568Z,41.03
2023-01-12T21:43:33.214Z,42.63
2023-01-12T21:46:06.048Z,39.60
2023-01-12T21:48:34.996Z,42.63
2023-01-12T21:51:03.261Z,42.28
2023-01-12T21:53:30.670Z,45.50
2023-01-12T21:56:00.651Z,42.22
2023-01-12T21:58:29.256Z,36.95
2023-01-12T22:00:57.121Z,36.70
2023-01-12T22:03:25.397Z,42.30
2023-01-12T22:05:54.932Z,41.00
2023-01-12T22:08:22.736Z,38.65
2023-01-12T22:10:50.121Z,41.63
2023-01-12T22:13:18.510Z,39.50
2023-01-12T22:15:48.330Z,42.40
2023-01-12T22:18:15.679Z,43.90
2023-01-12T22:20:43.706Z,40.50
2023-01-12T22:25:40.896Z,43.25
2023-01-12T22:28:08.279Z,43.00
2023-01-12T22:30:35.690Z,41.72
2023-01-12T22:33:03.075Z,44.40
2023-01-12T22:35:30.461Z,43.20
2023-01-12T22:37:57.904Z,42.17
2023-01-12T22:40:26.643Z,45.70
2023-01-12T22:43:11.659Z,41.08
2023-01-12T22:45:40.330Z,41.60
2023-01-12T22:48:07.947Z,38.97
2023-01-12T22:50:35.301Z,40.58
2023-01-12T22:53:02.705Z,42.30
2023-01-12T22:55:31.399Z,42.05
2023-01-12T22:57:58.845Z,59.40
2023-01-12T23:00:26.364Z,40.78
2023-01-12T23:03:03.083Z,40.20
2023-01-12T23:05:33.510Z,42.97
2023-01-12T23:08:01.276Z,41.53
2023-01-12T23:10:29.713Z,40.38
2023-01-12T23:13:17.199Z,40.25
2023-01-12T23:15:47.521Z,43.30
2023-01-12T23:18:17.253Z,40.58
2023-01-12T23:20:45.999Z,42.20
2023-01-12T23:23:14.461Z,44.13
2023-01-12T23:25:44.601Z,42.42
2023-01-12T23:28:15.023Z,38.90
2023-01-12T23:30:43.078Z,42.00
2023-01-12T23:35:40.064Z,49.45
2023-01-12T23:38:08.447Z,47.38
2023-01-12T23:40:35.978Z,38.67
2023-01-12T23:43:03.494Z,46.20
2023-01-12T23:45:33.910Z,40.97
2023-01-12T23:48:01.410Z,37.25
2023-01-12T23:50:28.957Z,39.55
2023-01-12T23:52:56.700Z,42.00
2023-01-12T23:55:26.070Z,43.08
2023-01-12T23:57:53.791Z,41.88
